Bess — 3FHH5 — position and weather

sailwx.info

Track history (hours):
 
Tides and Currents Weather Stations Pressure Air Temp Water Temp Dewpoint Dewpoint Depression Visibility Wind Speed Wind Dir Waves Ship Positions

Bess

Last reported at 2017-Nov-07 23:51 UTC. Time now 2017-Nov-21 05:59 UTC.
Position N 01°19' E 103°20'.
Warning: this ship's position is 13 days out of date.

Length 199 m; draft 9.7 m.

Type: Cargo ship. MMSI: 372995000.

Date/timePositionNaut miles runAvg speedWind from/ knotsBaromVisibWave heightAir tempDewpointWater temp
2017-Nov-07 23:51N 01°19' E 103°20'719.4
2017-Nov-07 23:30N 01°14' E 103°25'917.1
2017-Nov-07 22:59N 01°12' E 103°33'613.3
2017-Nov-07 22:30N 01°11' E 103°39'611.1
2017-Nov-07 21:59N 01°09' E 103°45'510.9
2017-Nov-07 21:30N 01°11' E 103°49'4 8.0
2017-Nov-07 21:00N 01°13' E 103°53'4 8.0
2017-Nov-07 20:30N 01°14' E 103°57'4 7.8
2017-Nov-07 20:00N 01°16' E 104°00'2 3.4
2017-Nov-07 19:30N 01°17' E 104°01'0 0.9
2017-Nov-07 18:56N 01°17' E 104°01'0 0.1
2017-Nov-07 18:26N 01°17' E 104°01'0 0.0
2017-Nov-07 16:47N 01°17' E 104°01'0 0.0
2017-Nov-07 16:23N 01°17' E 104°01'0 0.0
2017-Nov-07 15:14N 01°17' E 104°01'0 0.0
2017-Nov-07 13:41N 01°17' E 104°01'0 0.1
2017-Nov-07 13:29N 01°17' E 104°01'0 0.1
2017-Nov-07 12:59N 01°17' E 104°01'0 0.0
2017-Nov-07 12:26N 01°17' E 104°01'0 0.0
2017-Nov-07 11:50N 01°17' E 104°01'0 0.0
2017-Nov-07 11:17N 01°17' E 104°01'0 0.0
2017-Nov-07 10:56N 01°17' E 104°01'0 0.0
2017-Nov-07 10:23N 01°17' E 104°01'0 0.0
2017-Nov-07 09:56N 01°17' E 104°01'0 0.0
2017-Nov-07 08:41N 01°17' E 104°01'0 0.0
2017-Nov-07 08:29N 01°17' E 104°01'0 0.0
2017-Nov-07 07:59N 01°17' E 104°01'0 0.1
2017-Nov-07 07:11N 01°17' E 104°01'0 0.0
2017-Nov-07 06:53N 01°17' E 104°01'0 0.0
2017-Nov-07 05:47N 01°17' E 104°01'0 0.0
2017-Nov-07 05:14N 01°17' E 104°01'0 0.0
2017-Nov-07 03:23N 01°17' E 104°01'0 0.1
2017-Nov-07 02:44N 01°17' E 104°01'0 0.2
2017-Nov-07 02:30N 01°17' E 104°01'3 6.5
2017-Nov-07 02:00N 01°15' E 103°58'0 0.7
2017-Nov-07 01:30N 01°16' E 103°58'2 4.0
2017-Nov-07 00:59N 01°16' E 104°00'4 6.9
2017-Nov-07 00:29N 01°16' E 104°04'  
Track history (hours):
 
Tides and Currents Weather Stations Pressure Air Temp Water Temp Dewpoint Dewpoint Depression Visibility Wind Speed Wind Dir Waves Ship Positions

Bess

Last reported at 2017-Nov-07 23:51 UTC. Time now 2017-Nov-21 05:59 UTC.
Position N 01°19' E 103°20'.
Warning: this ship's position is 13 days out of date.

Length 199 m; draft 9.7 m.

Type: Cargo ship. MMSI: 372995000.

Date/timePositionNaut miles runAvg speedWind from/ knotsBaromVisibWave heightAir tempDewpointWater temp
2017-Nov-07 23:51N 01°19' E 103°20'719.4
2017-Nov-07 23:30N 01°14' E 103°25'917.1
2017-Nov-07 22:59N 01°12' E 103°33'613.3
2017-Nov-07 22:30N 01°11' E 103°39'611.1
2017-Nov-07 21:59N 01°09' E 103°45'510.9
2017-Nov-07 21:30N 01°11' E 103°49'4 8.0
2017-Nov-07 21:00N 01°13' E 103°53'4 8.0
2017-Nov-07 20:30N 01°14' E 103°57'4 7.8
2017-Nov-07 20:00N 01°16' E 104°00'2 3.4
2017-Nov-07 19:30N 01°17' E 104°01'0 0.9
2017-Nov-07 18:56N 01°17' E 104°01'0 0.1
2017-Nov-07 18:26N 01°17' E 104°01'0 0.0
2017-Nov-07 16:47N 01°17' E 104°01'0 0.0
2017-Nov-07 16:23N 01°17' E 104°01'0 0.0
2017-Nov-07 15:14N 01°17' E 104°01'0 0.0
2017-Nov-07 13:41N 01°17' E 104°01'0 0.1
2017-Nov-07 13:29N 01°17' E 104°01'0 0.1
2017-Nov-07 12:59N 01°17' E 104°01'0 0.0
2017-Nov-07 12:26N 01°17' E 104°01'0 0.0
2017-Nov-07 11:50N 01°17' E 104°01'0 0.0
2017-Nov-07 11:17N 01°17' E 104°01'0 0.0
2017-Nov-07 10:56N 01°17' E 104°01'0 0.0
2017-Nov-07 10:23N 01°17' E 104°01'0 0.0
2017-Nov-07 09:56N 01°17' E 104°01'0 0.0
2017-Nov-07 08:41N 01°17' E 104°01'0 0.0
2017-Nov-07 08:29N 01°17' E 104°01'0 0.0
2017-Nov-07 07:59N 01°17' E 104°01'0 0.1
2017-Nov-07 07:11N 01°17' E 104°01'0 0.0
2017-Nov-07 06:53N 01°17' E 104°01'0 0.0
2017-Nov-07 05:47N 01°17' E 104°01'0 0.0
2017-Nov-07 05:14N 01°17' E 104°01'0 0.0
2017-Nov-07 03:23N 01°17' E 104°01'0 0.1
2017-Nov-07 02:44N 01°17' E 104°01'0 0.2
2017-Nov-07 02:30N 01°17' E 104°01'3 6.5
2017-Nov-07 02:00N 01°15' E 103°58'0 0.7
2017-Nov-07 01:30N 01°16' E 103°58'2 4.0
2017-Nov-07 00:59N 01°16' E 104°00'4 6.9
2017-Nov-07 00:29N 01°16' E 104°04'  

Dump ship's entire track history